Time;durP1;ratioP1;P1;durP2;ratioP2;P2;SDS_P1;SDS_P2;PMS_P1;PMS_P2;Temp;Humidity;BMP_temperature;BMP_pressure;BME280_temperature;BME280_humidity;BME280_pressure;Samples;Min_cycle;Max_cycle;Signal;HPM_P1;HPM_P2
2022/01/19 00:02:06;;;;;;;24.63;9.27;;;;;;;1.04;100.00;102369.72;5988205;29;20055;-90
2022/01/19 00:05:17;;;;;;;30.25;10.77;;;;;;;1.00;100.00;102373.16;5973694;29;20466;-90
2022/01/19 00:08:21;;;;;;;24.60;10.65;;;;;;;1.01;100.00;102376.53;5973051;29;20065;-90
2022/01/19 00:11:55;;;;;;;30.33;12.40;;;;;;;1.04;100.00;102379.94;5974066;29;20050;-90
2022/01/19 00:14:58;;;;;;;26.27;10.45;;;;;;;1.01;100.00;102374.84;5977252;29;20030;-90
2022/01/19 00:18:00;;;;;;;30.00;11.57;;;;;;;1.01;100.00;102369.72;5975548;29;20141;-90
2022/01/19 00:21:13;;;;;;;24.85;10.18;;;;;;;1.03;100.00;102356.97;5976443;29;20054;-90
2022/01/19 00:24:15;;;;;;;24.52;10.15;;;;;;;1.02;100.00;102360.41;5977782;29;20560;-90
2022/01/19 00:27:17;;;;;;;36.15;12.75;;;;;;;0.99;100.00;102342.56;5977958;29;20062;-90
2022/01/19 00:30:19;;;;;;;28.10;10.80;;;;;;;0.95;100.00;102331.56;5975842;29;20381;-90
2022/01/19 00:33:22;;;;;;;24.05;10.30;;;;;;;0.94;100.00;102321.38;5974703;29;20125;-90
2022/01/19 00:36:30;;;;;;;29.88;11.05;;;;;;;0.91;100.00;102301.00;5975346;29;20051;-89
2022/01/19 00:39:33;;;;;;;27.30;11.52;;;;;;;0.89;100.00;102297.63;5977958;29;20050;-90
2022/01/19 00:42:35;;;;;;;29.05;10.38;;;;;;;0.91;100.00;102308.66;5975468;29;20946;-90
2022/01/19 00:45:37;;;;;;;23.92;10.43;;;;;;;0.86;100.00;102298.50;5975163;29;20141;-90
2022/01/19 00:48:59;;;;;;;27.05;11.10;;;;;;;0.88;100.00;102291.69;5961431;29;20095;-90
2022/01/19 00:52:01;;;;;;;31.50;12.00;;;;;;;0.85;100.00;102286.63;5977033;29;20042;-90
2022/01/19 00:55:12;;;;;;;30.73;11.10;;;;;;;0.86;100.00;102291.69;5976703;29;21273;-90
2022/01/19 00:58:14;;;;;;;31.48;12.23;;;;;;;0.88;100.00;102294.25;5976547;29;20135;-90
2022/01/19 01:01:16;;;;;;;27.95;12.13;;;;;;;0.86;100.00;102299.34;5976169;29;20355;-90
2022/01/19 01:04:18;;;;;;;23.25;10.35;;;;;;;0.85;100.00;102282.38;5976609;29;20057;-90
2022/01/19 01:07:20;;;;;;;27.02;10.43;;;;;;;0.82;100.00;102282.41;5975850;29;20457;-89
2022/01/19 01:10:31;;;;;;;28.10;11.20;;;;;;;0.82;100.00;102281.53;5977979;29;20062;-90
2022/01/19 01:17:13;;;;;;;25.95;10.85;;;;;;;0.80;100.00;102262.91;5977251;29;20097;-89
2022/01/19 01:20:16;;;;;;;29.30;11.27;;;;;;;0.78;100.00;102262.06;5976561;29;20122;-89
2022/01/19 01:23:22;;;;;;;23.13;9.57;;;;;;;0.77;100.00;102253.56;5978646;29;20043;-89
2022/01/19 01:26:26;;;;;;;23.63;9.38;;;;;;;0.75;100.00;102257.00;5964850;29;20050;-89
2022/01/19 01:29:28;;;;;;;26.98;10.55;;;;;;;0.72;100.00;102242.59;5980375;29;20058;-90
2022/01/19 01:32:32;;;;;;;24.02;9.65;;;;;;;0.68;100.00;102232.44;5981447;29;20047;-90
2022/01/19 01:35:34;;;;;;;26.05;10.80;;;;;;;0.64;100.00;102242.63;5979200;29;20050;-89
2022/01/19 01:38:37;;;;;;;29.67;11.57;;;;;;;0.65;100.00;102228.22;5976959;29;20094;-90
2022/01/19 01:41:45;;;;;;;26.65;9.95;;;;;;;0.66;100.00;102213.75;5973908;29;20107;-90
2022/01/19 01:44:55;;;;;;;21.90;9.23;;;;;;;0.56;100.00;102198.56;5979836;29;20035;-89
2022/01/19 01:48:06;;;;;;;22.50;8.68;;;;;;;0.49;100.00;102181.66;5961667;29;20054;-90
2022/01/19 01:54:31;;;;;;;26.42;9.80;;;;;;;0.43;100.00;102151.16;5977699;29;20103;-90
2022/01/19 01:57:34;;;;;;;29.73;9.80;;;;;;;0.42;100.00;102149.44;5980790;29;20042;-90
2022/01/19 02:00:36;;;;;;;28.90;10.80;;;;;;;0.46;100.00;102152.81;5976037;29;20054;-90
2022/01/19 02:03:45;;;;;;;26.77;10.05;;;;;;;0.48;100.00;102159.59;5977684;29;20069;-89
2022/01/19 02:24:11;;;;;;;26.48;9.85;;;;;;;0.41;100.00;102127.41;5979972;29;20449;-89
2022/01/19 02:40:57;;;;;;;27.05;9.25;;;;;;;0.10;100.00;102081.03;5989450;29;20532;-89
2022/01/19 02:43:59;;;;;;;22.48;8.77;;;;;;;0.10;100.00;102068.28;5978718;29;20121;-90
2022/01/19 02:50:19;;;;;;;25.17;10.45;;;;;;;-0.04;100.00;102054.03;5973024;29;20073;-89
2022/01/19 02:53:21;;;;;;;26.23;9.55;;;;;;;-0.05;100.00;102047.25;5976411;29;20145;-89
2022/01/19 02:56:29;;;;;;;27.08;10.57;;;;;;;-0.03;100.00;102040.41;5976506;29;20057;-89
2022/01/19 02:59:48;;;;;;;29.48;10.80;;;;;;;0.00;100.00;102042.13;5978441;29;20065;-89
2022/01/19 03:09:34;;;;;;;25.05;10.95;;;;;;;0.10;100.00;102036.06;5975845;29;20042;-89
2022/01/19 03:12:36;;;;;;;25.98;11.27;;;;;;;0.10;100.00;102022.47;5974944;29;20539;-90
2022/01/19 03:15:39;;;;;;;27.17;11.05;;;;;;;0.06;100.00;102023.38;5977254;29;20094;-89
2022/01/19 03:18:41;;;;;;;22.15;10.20;;;;;;;0.02;100.00;102022.56;5961878;29;20054;-89
2022/01/19 03:21:45;;;;;;;25.38;11.18;;;;;;;-0.05;100.00;102011.63;5975023;29;20140;-89
2022/01/19 03:24:51;;;;;;;29.08;10.48;;;;;;;-0.11;100.00;102000.66;5975091;29;20050;-89
2022/01/19 03:27:52;;;;;;;21.27;10.23;;;;;;;-0.11;100.00;102000.66;5975125;29;20050;-89
2022/01/19 03:30:55;;;;;;;26.50;10.00;;;;;;;-0.18;100.00;101989.69;5977470;29;20050;-89
2022/01/19 03:33:57;;;;;;;21.23;9.38;;;;;;;-0.26;100.00;101978.75;5977514;29;20050;-89
2022/01/19 03:36:59;;;;;;;22.38;9.45;;;;;;;-0.28;100.00;101975.38;5977197;29;20516;-89
2022/01/19 03:40:06;;;;;;;20.92;9.80;;;;;;;-0.32;100.00;101958.50;5976565;29;20812;-89
2022/01/19 03:43:08;;;;;;;23.35;10.38;;;;;;;-0.39;100.00;101950.06;5973762;29;20054;-89
2022/01/19 03:46:43;;;;;;;22.20;10.38;;;;;;;-0.45;100.00;101950.97;5975688;29;20125;-89
2022/01/19 03:49:45;;;;;;;22.60;9.63;;;;;;;-0.48;100.00;101952.69;5973426;29;20076;-89
2022/01/19 03:52:48;;;;;;;24.63;10.63;;;;;;;-0.50;100.00;101940.00;5971396;29;20206;-89
2022/01/19 03:55:50;;;;;;;23.55;9.52;;;;;;;-0.55;100.00;101940.91;5972493;29;20096;-89
2022/01/19 03:58:52;;;;;;;25.10;9.63;;;;;;;-0.58;100.00;101936.69;5973783;29;20054;-89
2022/01/19 04:01:57;;;;;;;21.35;8.90;;;;;;;-0.59;100.00;101929.94;5975940;29;20048;-89
2022/01/19 04:05:15;;;;;;;23.33;9.88;;;;;;;-0.63;100.00;101917.25;5976453;29;20541;-89
2022/01/19 04:08:17;;;;;;;23.40;8.90;;;;;;;-0.73;100.00;101907.16;5975639;29;20050;-90
2022/01/19 04:11:22;;;;;;;26.55;9.88;;;;;;;-0.76;100.00;101896.19;5974269;29;20537;-89
2022/01/19 04:14:30;;;;;;;23.60;10.50;;;;;;;-0.79;100.00;101888.59;5956957;29;20050;-89
2022/01/19 04:17:33;;;;;;;23.88;9.82;;;;;;;-0.76;100.00;101883.47;5976948;29;20409;-89
2022/01/19 04:20:41;;;;;;;19.27;7.85;;;;;;;-0.74;100.00;101886.84;5975781;29;20515;-89
2022/01/19 04:23:44;;;;;;;27.75;8.55;;;;;;;-0.70;100.00;101881.69;5974130;29;20054;-89
2022/01/19 04:26:50;;;;;;;19.23;8.23;;;;;;;-0.65;100.00;101886.75;5976956;29;20457;-89
2022/01/19 04:33:39;;;;;;;20.67;8.77;;;;;;;-0.65;100.00;101886.75;5974315;29;20046;-89
2022/01/19 05:04:23;;;;;;;20.27;8.32;;;;;;;-0.60;100.00;101808.72;5967678;29;20512;-89
2022/01/19 05:07:42;;;;;;;19.58;8.18;;;;;;;-0.60;100.00;101782.44;5992770;29;20054;-89
2022/01/19 05:13:51;;;;;;;23.50;8.98;;;;;;;-0.54;100.00;101757.78;5979279;29;20161;-89
2022/01/19 05:16:58;;;;;;;22.35;8.25;;;;;;;-0.54;100.00;101760.34;5975625;29;20050;-89
2022/01/19 05:20:00;;;;;;;20.85;8.45;;;;;;;-0.60;100.00;101772.28;5979114;29;20061;-89
2022/01/19 05:23:03;;;;;;;18.35;9.68;;;;;;;-0.63;100.00;101762.16;5978326;29;20408;-89
2022/01/19 05:26:05;;;;;;;21.98;8.98;;;;;;;-0.66;100.00;101774.03;5979563;29;20131;-89
2022/01/19 05:29:12;;;;;;;21.02;7.78;;;;;;;-0.66;100.00;101775.75;5979721;29;20178;-89
2022/01/19 05:32:15;;;;;;;18.70;7.28;;;;;;;-0.66;100.00;101756.25;5961588;29;20106;-89
2022/01/19 05:35:17;;;;;;;25.52;7.63;;;;;;;-0.63;100.00;101757.06;5975791;29;20054;-89
2022/01/19 05:38:25;;;;;;;16.83;7.07;;;;;;;-0.62;100.00;101753.66;5975976;29;20061;-89
2022/01/19 05:42:02;;;;;;;17.45;7.45;;;;;;;-0.64;100.00;101757.94;5921503;29;20487;-89
2022/01/19 05:45:08;;;;;;;17.35;7.47;;;;;;;-0.67;100.00;101764.75;5977374;29;20095;-89
2022/01/19 05:48:10;;;;;;;17.98;7.85;;;;;;;-0.56;100.00;101756.97;5975299;29;20082;-89
2022/01/19 05:51:17;;;;;;;18.85;8.25;;;;;;;-0.43;100.00;101738.13;5977713;29;20054;-89
2022/01/19 05:54:20;;;;;;;15.32;7.70;;;;;;;-0.18;100.00;101719.97;5978242;29;20050;-89
2022/01/19 05:57:22;;;;;;;13.82;8.35;;;;;;;-0.11;100.00;101700.38;5977193;29;20465;-89
2022/01/19 06:00:26;;;;;;;17.63;8.90;;;;;;;-0.09;100.00;101683.38;5975918;29;20606;-89
2022/01/19 06:03:27;;;;;;;18.10;9.45;;;;;;;-0.16;100.00;101691.97;5979753;29;20058;-89
2022/01/19 06:06:56;;;;;;;14.32;8.70;;;;;;;-0.19;100.00;101686.94;5973617;29;20513;-89
2022/01/19 06:10:42;;;;;;;18.75;9.45;;;;;;;-0.20;100.00;101678.44;5976613;29;20462;-89
2022/01/19 06:13:35;;;;;;;18.77;9.07;;;;;;;-0.25;100.00;101653.09;5975620;29;20499;-89
2022/01/19 06:16:39;;;;;;;17.55;9.32;;;;;;;-0.22;100.00;101652.19;5966099;29;20555;-89
2022/01/19 06:19:42;;;;;;;17.40;9.75;;;;;;;-0.16;100.00;101641.91;5978994;29;20140;-89
2022/01/19 06:22:48;;;;;;;14.88;8.60;;;;;;;-0.20;100.00;101627.53;5959566;29;20050;-89
2022/01/19 06:25:50;;;;;;;17.83;9.55;;;;;;;-0.22;100.00;101622.50;5978010;29;20503;-89
2022/01/19 06:28:52;;;;;;;17.08;10.27;;;;;;;-0.16;100.00;101625.81;5978231;29;20086;-89
2022/01/19 06:31:55;;;;;;;16.42;10.30;;;;;;;-0.09;100.00;101622.31;5977728;29;20054;-89
2022/01/19 06:34:57;;;;;;;17.73;10.55;;;;;;;-0.01;100.00;101621.28;5975914;29;20378;-89
2022/01/19 06:37:59;;;;;;;15.40;9.35;;;;;;;-0.07;100.00;101613.78;5973645;29;20058;-89
2022/01/19 06:41:12;;;;;;;17.88;10.63;;;;;;;-0.04;100.00;101611.16;5977187;29;20042;-89
2022/01/19 06:44:15;;;;;;;18.25;9.80;;;;;;;-0.07;100.00;101595.13;5977275;29;20068;-89
2022/01/19 06:47:17;;;;;;;14.30;9.80;;;;;;;-0.11;100.00;101598.59;5977445;29;20092;-89
2022/01/19 06:50:20;;;;;;;19.83;10.57;;;;;;;-0.13;100.00;101590.13;5976769;29;20061;-89
2022/01/19 06:53:22;;;;;;;17.23;10.85;;;;;;;-0.16;100.00;101595.28;5976565;29;20050;-89
2022/01/19 06:56:38;;;;;;;15.18;8.70;;;;;;;-0.09;100.00;101584.13;5976129;29;20050;-89
2022/01/19 07:00:05;;;;;;;16.75;9.60;;;;;;;0.01;100.00;101569.53;5963817;29;20046;-89
2022/01/19 07:03:33;;;;;;;15.90;9.48;;;;;;;-0.08;100.00;101568.81;5978612;29;20050;-89
2022/01/19 07:06:58;;;;;;;13.25;8.52;;;;;;;-0.15;100.00;101566.41;5968186;29;20073;-89
2022/01/19 07:10:19;;;;;;;15.57;9.30;;;;;;;-0.24;100.00;101558.09;5969115;29;20062;-89
2022/01/19 07:13:21;;;;;;;14.25;8.63;;;;;;;-0.19;100.00;101552.09;5976644;29;20054;-89
2022/01/19 07:16:23;;;;;;;14.20;8.68;;;;;;;-0.20;100.00;101546.13;5978398;29;20055;-89
2022/01/19 07:19:26;;;;;;;14.05;8.80;;;;;;;-0.22;100.00;101552.97;5969030;29;20124;-89
2022/01/19 07:22:28;;;;;;;12.60;8.07;;;;;;;-0.27;100.00;101555.59;5978447;29;20049;-89
2022/01/19 07:25:34;;;;;;;14.13;7.78;;;;;;;-0.08;100.00;101567.97;5980209;29;20504;-89
2022/01/19 07:28:36;;;;;;;13.02;8.40;;;;;;;-0.16;100.00;101567.28;5956043;29;20059;-89
2022/01/19 07:31:38;;;;;;;13.05;8.10;;;;;;;0.01;100.00;101572.91;5957160;29;20047;-89
2022/01/19 07:34:42;;;;;;;13.45;8.23;;;;;;;0.16;100.00;101564.97;5973952;29;20053;-89
2022/01/19 07:37:47;;;;;;;11.52;6.90;;;;;;;0.16;100.00;101559.06;5972560;29;20046;-89
2022/01/19 07:40:51;;;;;;;14.00;8.30;;;;;;;0.18;100.00;101560.72;5957615;29;20054;-89
2022/01/19 07:43:53;;;;;;;14.45;8.50;;;;;;;0.14;100.00;101558.25;5975954;29;20053;-89
2022/01/19 07:47:13;;;;;;;13.98;8.23;;;;;;;0.19;100.00;101546.28;5974839;29;20054;-89
2022/01/19 07:50:36;;;;;;;11.73;7.93;;;;;;;0.26;100.00;101547.00;5975200;29;20058;-89
2022/01/19 07:54:12;;;;;;;12.73;8.50;;;;;;;0.27;100.00;101553.75;5975453;29;20054;-89
2022/01/19 07:57:33;;;;;;;15.80;9.38;;;;;;;0.27;100.00;101558.84;5967619;29;20577;-89
2022/01/19 08:00:54;;;;;;;12.25;8.30;;;;;;;0.37;100.00;101557.78;5969611;29;20058;-89
2022/01/19 08:04:15;;;;;;;14.23;8.85;;;;;;;0.51;100.00;101573.63;5977408;29;20501;-89
2022/01/19 08:07:18;;;;;;;11.85;8.30;;;;;;;0.76;100.00;101575.69;5981791;29;20065;-89
2022/01/19 08:10:23;;;;;;;14.45;8.57;;;;;;;0.99;100.00;101575.19;5978411;29;20055;-89
2022/01/19 08:13:26;;;;;;;12.60;8.65;;;;;;;1.17;100.00;101579.88;5972667;29;20587;-89
2022/01/19 08:16:29;;;;;;;13.00;7.63;;;;;;;1.28;100.00;101582.19;5978373;29;20082;-89
2022/01/19 08:19:32;;;;;;;17.00;9.40;;;;;;;1.32;100.00;101573.59;5966619;29;20046;-89
2022/01/19 08:22:34;;;;;;;13.85;8.20;;;;;;;1.36;100.00;101587.94;5978616;29;20057;-88
2022/01/19 08:25:55;;;;;;;;;;;;;;;1.45;100.00;101586.88;5971968;29;20054;-89
2022/01/19 08:28:58;;;;;;;12.63;8.50;;;;;;;1.46;100.00;101586.81;5980662;29;19928;-90
2022/01/19 08:32:00;;;;;;;9.73;7.20;;;;;;;1.50;100.00;101587.59;5950055;29;20053;-89
2022/01/19 08:36:01;;;;;;;9.35;6.38;;;;;;;1.52;100.00;101593.53;5975516;29;20054;-89
2022/01/19 08:39:24;;;;;;;10.20;6.85;;;;;;;1.52;100.00;101573.09;5974082;29;20051;-89
2022/01/19 08:42:29;;;;;;;9.07;6.22;;;;;;;1.56;100.00;101566.19;5976134;29;20062;-89
2022/01/19 08:45:32;;;;;;;9.52;6.25;;;;;;;1.58;100.00;101561.91;5978233;29;20042;-88
2022/01/19 08:48:34;;;;;;;10.18;6.40;;;;;;;1.63;100.00;101555.81;5965690;29;20038;-88
2022/01/19 08:51:55;;;;;;;9.77;6.68;;;;;;;1.73;100.00;101561.50;5963631;29;20081;-88
2022/01/19 08:55:10;;;;;;;10.57;6.80;;;;;;;1.77;100.00;101557.19;5977530;29;20046;-88
2022/01/19 08:58:13;;;;;;;8.55;6.72;;;;;;;1.77;100.00;101550.34;5978858;29;20428;-88
2022/01/19 09:01:16;;;;;;;10.25;7.07;;;;;;;1.81;100.00;101544.28;5958072;29;20051;-88
2022/01/19 09:04:19;;;;;;;8.40;6.57;;;;;;;1.84;100.00;101541.66;5957292;29;20177;-88
2022/01/19 09:07:21;;;;;;;9.98;7.15;;;;;;;1.88;100.00;101545.78;5971689;29;20073;-88
2022/01/19 09:10:25;;;;;;;9.95;6.60;;;;;;;2.02;100.00;101534.41;5978585;29;20103;-88
2022/01/19 09:13:44;;;;;;;8.33;6.40;;;;;;;2.00;100.00;101533.59;5979257;29;20166;-88
2022/01/19 09:17:01;;;;;;;9.98;7.25;;;;;;;2.04;100.00;101522.44;5957287;29;20119;-88
2022/01/19 09:20:06;;;;;;;8.88;6.30;;;;;;;2.03;100.00;101518.19;5968454;29;20638;-88
2022/01/19 09:23:09;;;;;;;8.77;6.13;;;;;;;2.12;100.00;101516.22;5965164;29;20046;-88
2022/01/19 09:26:11;;;;;;;7.50;5.53;;;;;;;2.10;100.00;101514.59;5964716;29;20053;-88
2022/01/19 09:29:13;;;;;;;7.32;5.57;;;;;;;2.11;100.00;101508.59;5972825;29;20050;-88
2022/01/19 09:32:16;;;;;;;8.38;5.90;;;;;;;2.13;100.00;101502.56;5976654;29;20180;-88
2022/01/19 09:35:24;;;;;;;8.95;6.05;;;;;;;2.23;100.00;101481.88;5973221;29;20062;-88
2022/01/19 09:38:28;;;;;;;6.05;5.43;;;;;;;2.34;100.00;101485.78;5974580;29;20398;-88
2022/01/19 09:41:32;;;;;;;6.90;5.38;;;;;;;2.44;100.00;101481.25;5963356;29;21377;-88
2022/01/19 09:44:35;;;;;;;5.88;5.25;;;;;;;2.51;100.00;101482.75;5978525;29;20196;-88
2022/01/19 09:47:37;;;;;;;6.25;5.07;;;;;;;2.63;100.00;101478.97;5979444;29;20111;-88
2022/01/19 09:50:40;;;;;;;8.40;5.18;;;;;;;2.74;100.00;101471.81;5978847;29;20576;-88
2022/01/19 09:53:42;;;;;;;6.50;4.95;;;;;;;2.83;100.00;101470.69;5970314;29;20049;-89
2022/01/19 09:56:46;;;;;;;5.78;4.75;;;;;;;2.87;100.00;101463.75;5980154;29;20434;-88
2022/01/19 09:59:48;;;;;;;5.60;4.88;;;;;;;2.99;100.00;101458.25;5980634;29;20050;-88
2022/01/19 10:03:23;;;;;;;5.47;4.95;;;;;;;3.11;100.00;101449.34;5978839;29;20074;-88
2022/01/19 10:06:25;;;;;;;7.10;5.40;;;;;;;3.05;100.00;101455.50;5979751;29;20073;-88
2022/01/19 10:09:29;;;;;;;8.15;4.78;;;;;;;3.15;100.00;101440.69;5971707;29;20050;-88
2022/01/19 10:19:34;;;;;;;6.28;5.10;;;;;;;3.26;100.00;101425.81;5969728;29;20118;-89
2022/01/19 10:22:36;;;;;;;6.15;5.10;;;;;;;3.21;100.00;101418.28;5978638;29;20766;-89
2022/01/19 10:25:51;;;;;;;6.97;5.00;;;;;;;3.15;100.00;101402.31;5974708;29;20050;-89
2022/01/19 10:29:07;;;;;;;6.47;5.03;;;;;;;3.17;100.00;101397.97;5977087;29;20070;-88
2022/01/19 10:32:09;;;;;;;6.07;4.80;;;;;;;3.28;100.00;101395.03;5985591;29;20070;-89
2022/01/19 10:35:44;;;;;;;6.30;5.10;;;;;;;3.37;100.00;101387.06;5967537;29;20074;-89
2022/01/19 10:38:56;;;;;;;7.35;5.40;;;;;;;3.31;100.00;101389.84;5976664;29;20058;-89
2022/01/19 10:42:03;;;;;;;;;;;;;;;3.27;100.00;101378.84;5980051;29;20046;-89
2022/01/19 10:45:08;;;;;;;7.00;5.50;;;;;;;3.16;100.00;101383.53;5978622;29;20366;-89
2022/01/19 10:48:10;;;;;;;7.78;5.38;;;;;;;3.13;100.00;101364.00;5977765;29;20042;-89
2022/01/19 10:51:15;;;;;;;8.25;5.57;;;;;;;3.16;100.00;101358.78;5979140;29;20061;-89
2022/01/19 10:54:21;;;;;;;8.10;6.00;;;;;;;3.17;100.00;101355.31;5978615;29;20050;-89
2022/01/19 10:57:32;;;;;;;8.07;6.00;;;;;;;3.23;100.00;101355.13;5980314;29;20049;-89
2022/01/19 11:00:36;;;;;;;9.18;6.35;;;;;;;3.20;100.00;101352.66;5978133;29;20054;-89
2022/01/19 11:03:38;;;;;;;9.40;6.80;;;;;;;3.18;100.00;101358.69;5962565;29;20059;-89
2022/01/19 11:06:40;;;;;;;8.27;6.15;;;;;;;3.10;100.00;101346.19;5980306;29;20516;-89
2022/01/19 11:13:38;;;;;;;8.70;6.53;;;;;;;3.01;100.00;101343.97;5968472;29;20050;-89
2022/01/19 11:16:40;;;;;;;9.52;6.40;;;;;;;2.89;100.00;101339.25;5978389;29;20085;-89
2022/01/19 11:19:43;;;;;;;8.50;6.57;;;;;;;2.84;100.00;101336.84;5977203;29;20260;-89
2022/01/19 11:22:48;;;;;;;9.00;6.85;;;;;;;2.78;100.00;101340.47;5963801;29;20054;-89
2022/01/19 11:25:53;;;;;;;8.70;7.18;;;;;;;2.73;100.00;101332.13;5977386;29;20050;-89
2022/01/19 11:29:13;;;;;;;8.02;6.85;;;;;;;2.79;100.00;101337.00;5978953;29;20096;-89
2022/01/19 11:32:21;;;;;;;8.95;7.13;;;;;;;2.75;100.00;101330.31;5978939;29;20053;-89
2022/01/19 11:35:38;;;;;;;9.23;7.22;;;;;;;2.72;100.00;101317.66;5973573;29;20566;-88
2022/01/19 11:38:45;;;;;;;9.95;8.15;;;;;;;2.78;100.00;101308.94;5981285;29;20051;-89
2022/01/19 11:41:56;;;;;;;9.35;7.35;;;;;;;2.77;100.00;101305.53;5960250;29;20054;-89
2022/01/19 11:44:59;;;;;;;8.60;7.57;;;;;;;2.75;100.00;101306.47;5974407;29;20095;-89
2022/01/19 11:48:23;;;;;;;8.88;7.30;;;;;;;2.74;100.00;101294.59;5968914;29;20046;-89
2022/01/19 11:51:42;;;;;;;8.90;7.45;;;;;;;2.76;100.00;101283.44;5972434;29;20050;-89
2022/01/19 11:54:46;;;;;;;10.88;6.80;;;;;;;2.83;100.00;101260.19;5970446;29;20066;-89
2022/01/19 11:58:11;;;;;;;9.05;6.57;;;;;;;2.93;100.00;101236.81;5967429;29;20617;-89
2022/01/19 12:01:24;;;;;;;7.55;6.70;;;;;;;2.88;100.00;101230.19;5967361;29;20367;-89
2022/01/19 12:04:40;;;;;;;9.90;7.78;;;;;;;2.85;100.00;101215.78;5980515;29;20090;-89
2022/01/19 12:07:52;;;;;;;9.85;7.68;;;;;;;2.94;100.00;101199.31;5980658;29;20537;-89
2022/01/19 12:11:11;;;;;;;10.13;7.30;;;;;;;2.83;100.00;101203.94;5980392;29;20074;-89
2022/01/19 12:14:35;;;;;;;8.57;6.75;;;;;;;2.86;100.00;101197.03;5968028;29;20082;-89
2022/01/19 12:18:07;;;;;;;11.52;7.75;;;;;;;2.93;100.00;101202.72;5966073;29;20500;-89
2022/01/19 12:21:12;;;;;;;10.18;7.32;;;;;;;2.92;100.00;101193.41;5979450;29;20046;-89
2022/01/19 12:24:26;;;;;;;8.02;7.15;;;;;;;3.02;100.00;101194.72;5978602;29;20180;-89
2022/01/19 12:27:30;;;;;;;8.68;6.82;;;;;;;3.08;100.00;101188.53;5977894;29;20428;-89
2022/01/19 12:30:33;;;;;;;9.68;7.60;;;;;;;3.02;100.00;101194.72;5978767;29;20051;-89
2022/01/19 12:33:36;;;;;;;8.73;7.30;;;;;;;2.99;100.00;101192.28;5978670;29;20046;-89
2022/01/19 12:36:42;;;;;;;10.93;8.48;;;;;;;2.98;100.00;101185.50;5965082;29;20050;-89
2022/01/19 12:39:45;;;;;;;10.43;7.90;;;;;;;3.02;100.00;101177.66;5979058;29;20768;-89
2022/01/19 12:42:49;;;;;;;11.93;8.90;;;;;;;2.99;100.00;101161.59;5967673;29;20108;-89
2022/01/19 12:45:51;;;;;;;11.65;8.63;;;;;;;2.91;100.00;101161.06;5974460;29;20055;-89
2022/01/19 12:48:55;;;;;;;12.60;9.07;;;;;;;2.80;100.00;101153.78;5976507;29;20104;-89
2022/01/19 12:52:00;;;;;;;10.93;8.40;;;;;;;2.82;100.00;101149.44;5972851;29;20073;-89
2022/01/19 12:55:21;;;;;;;13.70;9.50;;;;;;;2.98;100.00;101148.00;5979699;29;20066;-88
2022/01/19 12:58:43;;;;;;;13.70;9.33;;;;;;;2.97;100.00;101140.38;5971478;29;20404;-89
2022/01/19 13:01:45;;;;;;;15.63;9.77;;;;;;;2.94;100.00;101127.69;5977044;29;20075;-89
2022/01/19 13:04:48;;;;;;;12.75;9.85;;;;;;;2.96;100.00;101115.69;5978805;29;20054;-88
2022/01/19 13:07:55;;;;;;;16.80;10.60;;;;;;;2.97;100.00;101112.25;5964102;29;20499;-88
2022/01/19 13:11:05;;;;;;;14.25;9.82;;;;;;;3.04;100.00;101107.75;5974647;29;20047;-89
2022/01/19 13:14:09;;;;;;;14.43;9.40;;;;;;;3.08;100.00;101097.34;5975279;29;20134;-89
2022/01/19 13:17:11;;;;;;;12.38;8.65;;;;;;;2.99;100.00;101085.72;5978213;29;20050;-88
2022/01/19 13:20:33;;;;;;;12.98;8.60;;;;;;;3.04;100.00;101080.44;5971278;29;20099;-89
2022/01/19 13:23:52;;;;;;;12.38;8.68;;;;;;;3.09;100.00;101070.03;5978393;29;20509;-89
2022/01/19 13:26:59;;;;;;;12.18;8.23;;;;;;;3.06;100.00;101055.63;5972999;29;20069;-89
2022/01/19 13:30:02;;;;;;;11.02;7.75;;;;;;;3.18;100.00;101049.19;5975545;29;20050;-88
2022/01/19 13:33:13;;;;;;;12.82;8.23;;;;;;;3.21;100.00;101038.84;5980258;29;20055;-89
2022/01/19 13:36:27;;;;;;;12.57;8.65;;;;;;;3.18;100.00;101031.28;5975417;29;20095;-89
2022/01/19 13:39:32;;;;;;;12.37;7.70;;;;;;;3.19;100.00;101028.66;5970904;29;20042;-89
2022/01/19 13:42:44;;;;;;;11.93;8.30;;;;;;;3.11;100.00;101028.16;5971949;29;20413;-89
2022/01/19 13:48:55;;;;;;;14.63;8.82;;;;;;;3.11;100.00;101024.78;5975131;29;20087;-89
2022/01/19 13:51:57;;;;;;;14.25;9.10;;;;;;;3.18;100.00;101021.91;5973700;29;20050;-89
2022/01/19 13:54:59;;;;;;;16.75;8.65;;;;;;;3.13;100.00;101025.50;5967393;29;20054;-89
2022/01/19 13:58:15;;;;;;;14.57;8.73;;;;;;;3.17;100.00;101017.66;5976865;29;20055;-89
2022/01/19 14:01:23;;;;;;;14.18;9.63;;;;;;;3.15;100.00;101003.28;5973034;29;20460;-89
2022/01/19 14:04:34;;;;;;;14.23;9.32;;;;;;;3.21;100.00;101010.72;5978325;29;20123;-89
2022/01/19 14:07:46;;;;;;;17.40;9.88;;;;;;;3.17;100.00;101012.53;5976807;29;20046;-88
2022/01/19 14:10:54;;;;;;;14.45;8.40;;;;;;;3.23;100.00;101007.19;5961953;29;20050;-88
2022/01/19 14:14:23;;;;;;;14.00;8.73;;;;;;;3.17;100.00;101001.47;5966123;29;20051;-88
2022/01/19 14:17:33;;;;;;;14.75;9.52;;;;;;;3.16;100.00;101004.94;5978379;29;20163;-89
2022/01/19 14:20:36;;;;;;;;;;;;;;;3.22;100.00;101002.97;5977492;29;20049;-86
2022/01/19 14:23:38;;;;;;;17.65;9.82;;;;;;;3.24;100.00;100996.06;5975001;29;19925;-86
2022/01/19 14:26:51;;;;;;;13.40;8.65;;;;;;;3.12;100.00;100981.22;5974219;29;20046;-86
2022/01/19 14:29:55;;;;;;;16.95;9.60;;;;;;;3.14;100.00;100976.88;5975224;29;20053;-86
2022/01/19 14:33:13;;;;;;;16.58;9.77;;;;;;;3.07;100.00;100975.44;5974279;29;20049;-86
2022/01/19 14:36:23;;;;;;;17.10;10.10;;;;;;;3.02;100.00;100969.69;5974300;29;20038;-85
2022/01/19 14:39:25;;;;;;;16.13;9.32;;;;;;;3.01;100.00;100950.13;5974513;29;20409;-85
2022/01/19 14:42:38;;;;;;;17.25;9.95;;;;;;;2.98;100.00;100950.25;5973417;29;20047;-85
2022/01/19 14:45:50;;;;;;;18.10;10.18;;;;;;;3.07;100.00;100949.03;5977941;29;20680;-85
2022/01/19 14:48:54;;;;;;;18.15;10.00;;;;;;;2.89;100.00;100935.28;5971363;29;20054;-85
2022/01/19 14:51:56;;;;;;;17.77;10.45;;;;;;;2.74;100.00;100921.41;5981168;29;20053;-85
2022/01/19 14:54:58;;;;;;;21.48;10.35;;;;;;;2.76;100.00;100915.34;5979144;29;20572;-85
2022/01/19 14:58:03;;;;;;;18.23;9.77;;;;;;;2.79;100.00;100904.97;5983859;29;20145;-85
2022/01/19 15:01:06;;;;;;;15.27;8.98;;;;;;;2.89;100.00;100899.50;5979461;29;20070;-85
2022/01/19 15:04:10;;;;;;;18.77;10.07;;;;;;;2.87;100.00;100876.53;5968936;29;20505;-85
2022/01/19 15:07:12;;;;;;;17.50;10.43;;;;;;;2.84;100.00;100870.72;5976066;29;20646;-85
2022/01/19 15:10:22;;;;;;;17.85;10.07;;;;;;;2.82;100.00;100862.28;5973706;29;20059;-85
2022/01/19 15:13:24;;;;;;;17.05;9.75;;;;;;;2.86;100.00;100863.81;5975461;29;20050;-85
2022/01/19 15:16:26;;;;;;;18.42;9.75;;;;;;;2.90;100.00;100861.06;5981222;29;20071;-85
2022/01/19 15:19:30;;;;;;;15.77;9.90;;;;;;;2.92;100.00;100851.59;5973656;29;20047;-86
2022/01/19 15:22:33;;;;;;;17.35;9.45;;;;;;;2.80;100.00;100849.56;5988317;29;20051;-85
2022/01/19 15:25:38;;;;;;;18.15;9.90;;;;;;;2.86;100.00;100843.34;5975657;29;20504;-85
2022/01/19 15:28:41;;;;;;;17.23;9.68;;;;;;;2.90;100.00;100832.13;5981812;29;20053;-85
2022/01/19 15:31:56;;;;;;;19.25;11.25;;;;;;;2.82;100.00;100817.09;5979126;29;20536;-85
2022/01/19 15:34:58;;;;;;;15.45;8.77;;;;;;;2.83;100.00;100810.25;5981344;29;20061;-85
2022/01/19 15:38:01;;;;;;;16.13;9.65;;;;;;;2.91;100.00;100801.38;5981385;29;21734;-85
2022/01/19 15:41:07;;;;;;;19.90;10.30;;;;;;;2.84;100.00;100794.03;5976306;29;20543;-85
2022/01/19 15:44:10;;;;;;;18.90;10.35;;;;;;;2.83;100.00;100782.97;5984181;29;20050;-85
2022/01/19 15:47:14;;;;;;;17.98;9.73;;;;;;;2.76;100.00;100782.41;5984120;29;20126;-85
2022/01/19 15:50:16;;;;;;;19.60;10.77;;;;;;;2.77;100.00;100784.06;5972746;29;20042;-85
2022/01/19 15:53:38;;;;;;;17.20;10.10;;;;;;;2.81;100.00;100774.56;5978428;29;20051;-85
2022/01/19 15:56:43;;;;;;;21.40;10.88;;;;;;;2.79;100.00;100771.22;5972413;29;20069;-85
2022/01/19 15:59:45;;;;;;;20.90;11.40;;;;;;;2.75;100.00;100767.97;5978614;29;20054;-85